createdAt,value
2023-02-08T00:01:59.248Z,103001.39
2023-02-08T00:04:50.828Z,103003.80
2023-02-08T00:07:26.163Z,102998.55
2023-02-08T00:10:16.904Z,103002.30
2023-02-08T00:13:11.198Z,103005.46
2023-02-08T00:15:58.449Z,103007.88
2023-02-08T00:18:56.115Z,103011.92
2023-02-08T00:21:49.741Z,103010.73
2023-02-08T00:24:45.151Z,103019.47
2023-02-08T00:27:24.186Z,103015.89
2023-02-08T00:30:13.764Z,103015.68
2023-02-08T00:33:03.270Z,103017.27
2023-02-08T00:36:22.635Z,103024.02
2023-02-08T00:39:14.985Z,103027.98
2023-02-08T00:42:05.174Z,103031.58
2023-02-08T00:44:56.838Z,103029.35
2023-02-08T00:47:45.555Z,103020.62
2023-02-08T00:50:17.725Z,103021.41
2023-02-08T00:53:09.508Z,103021.51
2023-02-08T00:56:02.196Z,103025.58
2023-02-08T00:58:56.168Z,103020.42
2023-02-08T01:01:50.080Z,103022.19
2023-02-08T01:04:43.698Z,103013.89
2023-02-08T01:07:33.916Z,103017.56
2023-02-08T01:10:24.022Z,103014.34
2023-02-08T01:13:13.828Z,103012.84
2023-02-08T01:16:14.064Z,103013.52
2023-02-08T01:19:06.475Z,103024.69
2023-02-08T01:21:49.547Z,103017.06
2023-02-08T01:24:46.278Z,103010.94
2023-02-08T01:27:22.101Z,103011.27
2023-02-08T01:30:20.006Z,103009.49
2023-02-08T01:33:03.437Z,103008.52
2023-02-08T01:35:55.812Z,103002.98
2023-02-08T01:38:28.711Z,102995.73
2023-02-08T01:41:27.081Z,102991.38
2023-02-08T01:44:51.779Z,102994.27
2023-02-08T01:47:29.120Z,102996.77
2023-02-08T01:50:26.453Z,102999.80
2023-02-08T01:53:27.300Z,102997.70
2023-02-08T01:56:27.934Z,102999.75
2023-02-08T01:59:22.992Z,102995.17
2023-02-08T02:02:17.129Z,102995.15
2023-02-08T02:05:09.898Z,102998.08
2023-02-08T02:07:42.430Z,102994.72
2023-02-08T02:10:20.857Z,102991.66
2023-02-08T02:13:17.309Z,102989.06
2023-02-08T02:16:08.883Z,102984.79
2023-02-08T02:19:00.693Z,102980.20
2023-02-08T02:21:54.070Z,102980.19
2023-02-08T02:24:51.024Z,102975.50
2023-02-08T02:28:06.106Z,102978.94
2023-02-08T02:31:41.392Z,102972.77
2023-02-08T02:34:40.850Z,102977.05
2023-02-08T02:37:51.632Z,102979.36
2023-02-08T02:40:52.700Z,102982.44
2023-02-08T02:43:48.285Z,102983.27
2023-02-08T02:46:35.286Z,102984.81
2023-02-08T02:49:37.969Z,102981.17
2023-02-08T02:52:40.878Z,102984.27
2023-02-08T02:55:36.270Z,102990.06
2023-02-08T02:58:08.190Z,102985.21
2023-02-08T03:01:00.284Z,102978.34
2023-02-08T03:03:51.702Z,102978.13
2023-02-08T03:06:59.712Z,102982.02
2023-02-08T03:10:06.959Z,102988.23
2023-02-08T03:13:10.476Z,102988.52
2023-02-08T03:16:11.013Z,102992.85
2023-02-08T03:19:09.018Z,102989.27
2023-02-08T03:22:05.369Z,102991.00
2023-02-08T03:25:03.226Z,102991.85
2023-02-08T03:28:04.769Z,102995.96
2023-02-08T03:31:05.810Z,103001.69
2023-02-08T03:34:01.326Z,103001.86
2023-02-08T03:36:57.377Z,103010.51
2023-02-08T03:39:49.611Z,103010.13
2023-02-08T03:42:40.931Z,103015.16
2023-02-08T03:45:33.352Z,103014.18
2023-02-08T03:48:28.662Z,103019.80
2023-02-08T03:51:21.988Z,103018.56
2023-02-08T03:53:58.032Z,103012.39
2023-02-08T03:56:35.774Z,103016.09
2023-02-08T03:59:30.733Z,103015.83
2023-02-08T04:02:26.885Z,103020.90
2023-02-08T04:04:55.533Z,103020.25
2023-02-08T04:07:48.150Z,103023.55
2023-02-08T04:10:37.423Z,103023.50
2023-02-08T04:13:30.129Z,103017.83
2023-02-08T04:16:24.110Z,103014.04
2023-02-08T04:19:14.094Z,103012.84
2023-02-08T04:22:03.312Z,103016.63
2023-02-08T04:24:51.906Z,103019.59
2023-02-08T04:27:23.217Z,103020.77
2023-02-08T04:30:15.131Z,103016.77
2023-02-08T04:32:45.219Z,103014.23
2023-02-08T04:35:35.207Z,103014.95
2023-02-08T04:38:24.164Z,103016.02
2023-02-08T04:40:57.925Z,103020.23
2023-02-08T04:43:26.389Z,103017.65
2023-02-08T04:45:59.226Z,103018.38
2023-02-08T04:48:31.240Z,103018.41
2023-02-08T04:51:20.412Z,103018.27
2023-02-08T04:54:14.119Z,103020.86
2023-02-08T04:56:42.728Z,103019.52
2023-02-08T04:59:15.265Z,103017.71
2023-02-08T05:01:52.489Z,103011.73
2023-02-08T05:04:24.790Z,103008.36
2023-02-08T05:07:14.966Z,103002.10
2023-02-08T05:10:07.500Z,102998.42
2023-02-08T05:12:46.197Z,102995.04
2023-02-08T05:15:42.548Z,103000.50
2023-02-08T05:18:31.966Z,103001.77
2023-02-08T05:21:25.903Z,103008.27
2023-02-08T05:24:19.906Z,102997.29
2023-02-08T05:27:15.842Z,102999.11
2023-02-08T05:30:16.007Z,103005.14
2023-02-08T05:33:09.764Z,103005.64
2023-02-08T05:35:52.036Z,103013.08
2023-02-08T05:38:27.743Z,103010.78
2023-02-08T05:41:20.987Z,103015.02
2023-02-08T05:44:12.448Z,103021.27
2023-02-08T05:47:08.438Z,103022.40
2023-02-08T05:49:46.081Z,103024.39
2023-02-08T05:52:36.020Z,103022.61
2023-02-08T05:55:37.786Z,103020.82
2023-02-08T05:58:29.923Z,103022.79
2023-02-08T06:01:21.488Z,103021.98
2023-02-08T06:04:17.117Z,103028.54
2023-02-08T06:07:07.689Z,103031.31
2023-02-08T06:10:00.570Z,103027.54
2023-02-08T06:12:43.842Z,103022.41
2023-02-08T06:15:35.685Z,103026.67
2023-02-08T06:21:32.645Z,103032.00
2023-02-08T06:24:28.480Z,103029.92
2023-02-08T06:27:04.004Z,103036.92
2023-02-08T06:29:55.238Z,103038.73
2023-02-08T06:32:43.904Z,103039.13
2023-02-08T06:35:34.210Z,103037.90
2023-02-08T06:38:28.582Z,103036.09
2023-02-08T06:41:18.964Z,103030.19
2023-02-08T06:43:49.757Z,103035.17
2023-02-08T06:46:39.344Z,103033.10
2023-02-08T06:49:11.898Z,103033.45
2023-02-08T06:52:08.774Z,103036.49
2023-02-08T06:54:58.540Z,103043.32
2023-02-08T06:57:46.413Z,103051.92
2023-02-08T07:00:15.575Z,103052.98
2023-02-08T07:02:43.191Z,103055.33
2023-02-08T07:05:10.752Z,103055.81
2023-02-08T07:07:38.351Z,103057.30
2023-02-08T07:10:07.029Z,103061.11
2023-02-08T07:12:36.133Z,103074.15
2023-02-08T07:15:04.207Z,103077.50
2023-02-08T07:17:31.752Z,103072.55
2023-02-08T07:19:59.376Z,103074.05
2023-02-08T07:22:26.957Z,103081.82
2023-02-08T07:24:54.642Z,103087.52
2023-02-08T07:27:23.967Z,103091.39
2023-02-08T07:29:52.615Z,103092.04
2023-02-08T07:32:20.245Z,103092.85
2023-02-08T07:34:47.855Z,103089.59
2023-02-08T07:37:15.695Z,103091.55
2023-02-08T07:39:43.282Z,103099.69
2023-02-08T07:42:11.570Z,103100.11
2023-02-08T07:44:43.316Z,103102.27
2023-02-08T07:47:10.869Z,103107.52
2023-02-08T07:49:38.444Z,103113.56
2023-02-08T07:52:06.086Z,103115.14
2023-02-08T07:54:33.682Z,103120.85
2023-02-08T07:57:03.395Z,103125.35
2023-02-08T07:59:32.688Z,103129.43
2023-02-08T08:02:00.431Z,103126.48
2023-02-08T08:04:28.145Z,103126.79
2023-02-08T08:06:55.714Z,103127.82
2023-02-08T08:09:23.989Z,103126.14
2023-02-08T08:11:51.537Z,103127.01
2023-02-08T08:14:19.238Z,103122.05
2023-02-08T08:16:46.792Z,103123.13
2023-02-08T08:19:14.393Z,103122.92
2023-02-08T08:21:41.997Z,103125.96
2023-02-08T08:24:09.759Z,103125.77
2023-02-08T08:26:37.350Z,103125.23
2023-02-08T08:29:05.790Z,103119.80
2023-02-08T08:31:33.521Z,103117.07
2023-02-08T08:34:01.189Z,103116.44
2023-02-08T08:36:28.770Z,103112.73
2023-02-08T08:38:56.396Z,103116.35
2023-02-08T08:41:26.938Z,103109.83
2023-02-08T08:43:54.656Z,103112.02
2023-02-08T08:46:22.325Z,103112.67
2023-02-08T08:48:51.380Z,103109.76
2023-02-08T08:51:19.230Z,103112.58
2023-02-08T08:53:46.831Z,103106.13
2023-02-08T08:56:14.504Z,103097.83
2023-02-08T08:58:43.111Z,103106.25
2023-02-08T09:01:11.454Z,103109.27
2023-02-08T09:03:39.174Z,103111.95
2023-02-08T09:06:07.453Z,103108.23
2023-02-08T09:08:35.085Z,103112.52
2023-02-08T09:11:07.951Z,103113.34
2023-02-08T09:13:35.891Z,103114.91
2023-02-08T09:16:08.031Z,103111.93
2023-02-08T09:18:35.765Z,103112.06
2023-02-08T09:21:07.012Z,103114.09
2023-02-08T09:23:35.386Z,103114.91
2023-02-08T09:26:04.108Z,103117.02
2023-02-08T09:28:32.152Z,103113.76
2023-02-08T09:31:06.545Z,103116.42
2023-02-08T09:33:34.257Z,103114.92
2023-02-08T09:36:01.868Z,103120.02
2023-02-08T09:38:29.819Z,103110.09
2023-02-08T09:41:10.908Z,103114.80
2023-02-08T09:43:49.611Z,103113.91
2023-02-08T09:46:20.695Z,103116.05
2023-02-08T09:48:52.688Z,103117.02
2023-02-08T09:51:28.991Z,103114.58
2023-02-08T09:54:05.184Z,103108.78
2023-02-08T09:56:36.388Z,103111.58
2023-02-08T09:59:05.554Z,103109.83
2023-02-08T10:01:35.965Z,103113.09
2023-02-08T10:04:10.372Z,103111.33
2023-02-08T10:06:38.472Z,103114.60
2023-02-08T10:09:13.337Z,103111.95
2023-02-08T10:11:57.404Z,103112.41
2023-02-08T10:14:39.442Z,103106.98
2023-02-08T10:17:28.267Z,103103.56
2023-02-08T10:20:08.116Z,103104.05
2023-02-08T10:22:46.428Z,103104.52
2023-02-08T10:25:30.475Z,103100.92
2023-02-08T10:28:16.138Z,103095.95
2023-02-08T10:30:51.322Z,103088.88
2023-02-08T10:33:26.282Z,103089.23
2023-02-08T10:35:55.167Z,103086.96
2023-02-08T10:38:44.075Z,103087.75
2023-02-08T10:41:18.790Z,103092.52
2023-02-08T10:43:52.376Z,103080.98
2023-02-08T10:46:28.702Z,103076.34
2023-02-08T10:49:08.274Z,103077.00
2023-02-08T10:51:36.692Z,103075.98
2023-02-08T10:54:04.875Z,103072.63
2023-02-08T10:56:46.107Z,103075.69
2023-02-08T10:59:20.354Z,103073.59
2023-02-08T11:01:49.431Z,103070.77
2023-02-08T11:04:17.874Z,103065.95
2023-02-08T11:06:47.454Z,103062.44
2023-02-08T11:09:23.552Z,103055.45
2023-02-08T11:11:52.241Z,103050.44
2023-02-08T11:14:30.412Z,103060.55
2023-02-08T11:17:24.542Z,103061.61
2023-02-08T11:19:52.941Z,103049.17
2023-02-08T11:22:23.350Z,103045.92
2023-02-08T11:24:58.122Z,103047.94
2023-02-08T11:27:34.189Z,103039.02
2023-02-08T11:30:22.332Z,103034.59
2023-02-08T11:33:18.650Z,103029.83
2023-02-08T11:35:57.050Z,103032.54
2023-02-08T11:38:27.585Z,103033.45
2023-02-08T11:41:01.013Z,103028.77
2023-02-08T11:43:31.268Z,103025.60
2023-02-08T11:46:01.004Z,103028.98
2023-02-08T11:48:39.567Z,103030.30
2023-02-08T11:51:12.974Z,103026.45
2023-02-08T11:53:47.390Z,103027.67
2023-02-08T11:56:19.191Z,103028.95
2023-02-08T11:59:04.415Z,103028.11
2023-02-08T12:01:35.086Z,103015.81
2023-02-08T12:04:06.340Z,103018.06
2023-02-08T12:07:06.845Z,103017.80
2023-02-08T12:10:06.353Z,103017.15
2023-02-08T12:12:48.280Z,103012.92
2023-02-08T12:15:24.758Z,103015.72
2023-02-08T12:18:17.368Z,103014.14
2023-02-08T12:20:46.994Z,103016.05
2023-02-08T12:23:46.061Z,103019.34
2023-02-08T12:26:21.587Z,103017.27
2023-02-08T12:29:22.038Z,103014.84
2023-02-08T12:32:04.999Z,103012.15
2023-02-08T12:34:46.394Z,103013.86
2023-02-08T12:37:44.852Z,103006.38
2023-02-08T12:40:45.319Z,103003.44
2023-02-08T12:43:29.312Z,103005.43
2023-02-08T12:46:14.665Z,103005.79
2023-02-08T12:49:02.280Z,103002.06
2023-02-08T12:51:35.781Z,102998.90
2023-02-08T12:54:10.553Z,102997.59
2023-02-08T12:56:53.612Z,102997.50
2023-02-08T12:59:29.950Z,102992.57
2023-02-08T13:02:03.896Z,102993.58
2023-02-08T13:04:37.681Z,102992.27
2023-02-08T13:07:14.788Z,102988.03
2023-02-08T13:09:49.840Z,102985.67
2023-02-08T13:12:23.542Z,102989.12
2023-02-08T13:14:54.690Z,102986.86
2023-02-08T13:17:24.679Z,102977.99
2023-02-08T13:20:00.432Z,102978.42
2023-02-08T13:22:34.328Z,102977.83
2023-02-08T13:25:08.008Z,102969.11
2023-02-08T13:27:43.942Z,102973.71
2023-02-08T13:30:20.029Z,102983.48
2023-02-08T13:32:50.264Z,102979.33
2023-02-08T13:35:23.447Z,102974.06
2023-02-08T13:37:55.869Z,102959.40
2023-02-08T13:40:28.200Z,102951.70
2023-02-08T13:43:01.124Z,102951.20
2023-02-08T13:45:32.239Z,102951.10
2023-02-08T13:48:02.599Z,102949.62
2023-02-08T13:50:46.617Z,102954.04
2023-02-08T13:53:16.604Z,102945.32
2023-02-08T13:55:56.592Z,102943.14
2023-02-08T13:58:38.732Z,102943.50
2023-02-08T14:01:24.063Z,102947.62
2023-02-08T14:04:28.488Z,102945.10
2023-02-08T14:07:00.794Z,102947.45
2023-02-08T14:09:39.200Z,102952.08
2023-02-08T14:12:17.181Z,102954.73
2023-02-08T14:15:05.684Z,102953.70
2023-02-08T14:17:34.182Z,102949.48
2023-02-08T14:20:05.752Z,102943.91
2023-02-08T14:22:38.496Z,102939.20
2023-02-08T14:25:16.992Z,102936.13
2023-02-08T14:27:52.153Z,102933.39
2023-02-08T14:30:26.733Z,102930.81
2023-02-08T14:33:11.928Z,102929.03
2023-02-08T14:35:42.793Z,102929.51
2023-02-08T14:38:35.840Z,102925.63
2023-02-08T14:41:04.674Z,102927.54
2023-02-08T14:43:35.183Z,102933.02
2023-02-08T14:46:38.179Z,102930.27
2023-02-08T14:49:10.627Z,102924.36
2023-02-08T14:51:41.397Z,102923.55
2023-02-08T14:54:21.209Z,102923.98
2023-02-08T14:56:55.566Z,102919.79
2023-02-08T14:59:28.320Z,102917.70
2023-02-08T15:01:59.290Z,102920.58
2023-02-08T15:04:28.013Z,102923.91
2023-02-08T15:07:27.988Z,102925.44
2023-02-08T15:09:56.346Z,102928.45
2023-02-08T15:12:27.627Z,102929.48
2023-02-08T15:14:58.199Z,102930.66
2023-02-08T15:17:33.746Z,102931.71
2023-02-08T15:20:05.251Z,102927.07
2023-02-08T15:22:38.105Z,102930.61
2023-02-08T15:25:22.759Z,102926.79
2023-02-08T15:27:52.715Z,102929.69
2023-02-08T15:30:31.427Z,102928.45
2023-02-08T15:32:59.814Z,102930.84
2023-02-08T15:35:28.494Z,102932.74
2023-02-08T15:37:56.852Z,102934.75
2023-02-08T15:40:27.949Z,102932.67
2023-02-08T15:43:06.317Z,102930.16
2023-02-08T15:45:34.261Z,102930.25
2023-02-08T15:48:02.479Z,102925.80
2023-02-08T15:50:32.684Z,102924.96
2023-02-08T15:53:03.143Z,102925.98
2023-02-08T15:55:35.020Z,102934.09
2023-02-08T15:58:06.646Z,102931.17
2023-02-08T16:00:36.926Z,102924.45
2023-02-08T16:03:08.785Z,102927.02
2023-02-08T16:05:37.769Z,102923.94
2023-02-08T16:08:06.754Z,102920.25
2023-02-08T16:10:39.640Z,102918.44
2023-02-08T16:13:17.614Z,102915.41
2023-02-08T16:15:47.181Z,102917.33
2023-02-08T16:18:35.129Z,102915.13
2023-02-08T16:21:04.615Z,102915.95
2023-02-08T16:23:34.476Z,102914.72
2023-02-08T16:26:16.164Z,102911.34
2023-02-08T16:28:50.877Z,102911.00
2023-02-08T16:31:21.662Z,102915.13
2023-02-08T16:33:58.108Z,102917.06
2023-02-08T16:36:31.226Z,102918.79
2023-02-08T16:39:22.378Z,102920.71
2023-02-08T16:42:16.122Z,102918.83
2023-02-08T16:45:00.502Z,102912.57
2023-02-08T16:47:34.683Z,102913.23
2023-02-08T16:50:02.447Z,102915.00
2023-02-08T16:52:30.595Z,102921.38
2023-02-08T16:54:58.833Z,102916.54
2023-02-08T16:57:43.815Z,102916.48
2023-02-08T17:01:29.261Z,102913.02
2023-02-08T17:04:21.158Z,102911.49
2023-02-08T17:06:57.577Z,102914.23
2023-02-08T17:09:50.673Z,102916.34
2023-02-08T17:13:03.848Z,102908.42
2023-02-08T17:16:22.827Z,102906.19
2023-02-08T17:19:34.095Z,102897.38
2023-02-08T17:22:07.556Z,102903.81
2023-02-08T17:24:59.335Z,102902.15
2023-02-08T17:27:41.298Z,102899.72
2023-02-08T17:31:02.321Z,102902.54
2023-02-08T17:33:45.151Z,102904.02
2023-02-08T17:36:54.392Z,102903.29
2023-02-08T17:40:00.381Z,102900.25
2023-02-08T17:43:13.087Z,102901.29
2023-02-08T17:49:45.864Z,102903.71
2023-02-08T17:52:39.429Z,102907.65
2023-02-08T17:55:37.366Z,102906.08
2023-02-08T17:58:54.727Z,102902.62
2023-02-08T18:01:46.837Z,102903.37
2023-02-08T18:04:26.452Z,102897.86
2023-02-08T18:07:24.456Z,102899.77
2023-02-08T18:10:30.079Z,102898.58
2023-02-08T18:13:06.681Z,102902.45
2023-02-08T18:19:31.092Z,102893.44
2023-02-08T18:22:36.918Z,102891.14
2023-02-08T18:25:33.020Z,102884.40
2023-02-08T18:28:25.754Z,102890.20
2023-02-08T18:31:15.767Z,102882.61
2023-02-08T18:33:57.893Z,102879.86
2023-02-08T18:36:41.952Z,102875.61
2023-02-08T18:39:44.664Z,102873.69
2023-02-08T18:42:47.637Z,102867.70
2023-02-08T18:45:34.583Z,102864.59
2023-02-08T18:48:34.977Z,102861.59
2023-02-08T18:51:39.582Z,102862.21
2023-02-08T18:54:15.327Z,102855.73
2023-02-08T18:57:40.249Z,102853.17
2023-02-08T19:00:47.683Z,102851.23
2023-02-08T19:03:42.546Z,102847.12
2023-02-08T19:06:22.867Z,102849.48
2023-02-08T19:09:13.731Z,102846.55
2023-02-08T19:12:07.851Z,102847.18
2023-02-08T19:15:15.853Z,102846.09
2023-02-08T19:18:11.497Z,102838.94
2023-02-08T19:21:18.340Z,102841.43
2023-02-08T19:25:02.200Z,102846.98
2023-02-08T19:28:33.659Z,102845.59
2023-02-08T19:30:36.617Z,102855.32
2023-02-08T19:33:10.151Z,102854.27
2023-02-08T19:35:38.779Z,102856.52
2023-02-08T19:38:06.697Z,102856.67
2023-02-08T19:40:35.525Z,102859.64
2023-02-08T19:43:03.718Z,102857.86
2023-02-08T19:45:44.435Z,102867.52
2023-02-08T19:48:12.489Z,102866.59
2023-02-08T19:50:42.227Z,102868.74
2023-02-08T19:53:10.002Z,102864.55
2023-02-08T19:55:38.112Z,102860.51
2023-02-08T19:58:05.780Z,102860.13
2023-02-08T20:00:36.198Z,102859.13
2023-02-08T20:03:19.685Z,102859.04
2023-02-08T20:05:49.864Z,102853.46
2023-02-08T20:08:18.488Z,102848.13
2023-02-08T20:10:48.213Z,102842.74
2023-02-08T20:13:16.092Z,102837.13
2023-02-08T20:15:45.106Z,102833.65
2023-02-08T20:18:28.320Z,102836.84
2023-02-08T20:21:03.777Z,102828.48
2023-02-08T20:23:38.702Z,102826.77
2023-02-08T20:26:09.920Z,102830.34
2023-02-08T20:28:40.859Z,102832.67
2023-02-08T20:31:37.508Z,102834.88
2023-02-08T20:34:21.706Z,102837.85
2023-02-08T20:37:10.853Z,102832.20
2023-02-08T20:39:41.910Z,102832.11
2023-02-08T20:42:41.931Z,102827.89
2023-02-08T20:57:22.966Z,102817.66
2023-02-08T21:00:49.620Z,102813.09
2023-02-08T21:11:19.758Z,102802.63
2023-02-08T21:14:43.250Z,102802.50
2023-02-08T21:18:11.868Z,102805.03
2023-02-08T21:21:18.932Z,102806.80
2023-02-08T21:24:28.123Z,102805.67
2023-02-08T21:34:43.948Z,102788.15
2023-02-08T21:37:55.814Z,102781.66
2023-02-08T21:40:47.450Z,102781.01
2023-02-08T21:58:41.072Z,102779.60
2023-02-08T22:02:07.485Z,102775.51
2023-02-08T22:05:04.199Z,102769.17
2023-02-08T22:13:00.502Z,102757.36
2023-02-08T22:16:13.795Z,102757.86
2023-02-08T22:23:19.621Z,102756.33
2023-02-08T22:26:40.011Z,102754.97
2023-02-08T22:29:27.672Z,102754.95
2023-02-08T22:32:27.720Z,102753.48
2023-02-08T22:35:53.858Z,102753.16
2023-02-08T22:39:45.484Z,102747.24
2023-02-08T22:42:56.392Z,102750.34
2023-02-08T22:46:08.677Z,102748.77
2023-02-08T22:49:07.343Z,102741.13
2023-02-08T22:52:16.107Z,102731.70
2023-02-08T22:54:52.521Z,102727.11
2023-02-08T22:57:54.397Z,102725.52
2023-02-08T23:00:44.367Z,102721.02
2023-02-08T23:03:26.597Z,102717.58
2023-02-08T23:06:21.089Z,102719.70
2023-02-08T23:08:52.966Z,102715.38
2023-02-08T23:11:53.286Z,102713.23
2023-02-08T23:14:51.584Z,102713.21
2023-02-08T23:17:44.153Z,102708.78
2023-02-08T23:20:58.701Z,102706.25
2023-02-08T23:24:02.751Z,102700.30
2023-02-08T23:40:01.278Z,102684.23
2023-02-08T23:43:31.363Z,102684.84
2023-02-08T23:47:06.677Z,102683.61
2023-02-08T23:50:15.939Z,102676.40
